sensor_id;sensor_type;location;lat;lon;timestamp;pressure;altitude;pressure_sealevel;temperature;humidity
26861;BME280;37676;46.956;7.430;2022-09-03T00:02:25;95057.25;;;22.52;53.75
26861;BME280;37676;46.956;7.430;2022-09-03T00:05:02;95054.59;;;22.54;53.84
26861;BME280;37676;46.956;7.430;2022-09-03T00:07:45;95054.59;;;22.54;53.99
26861;BME280;37676;46.956;7.430;2022-09-03T00:10:21;95056.16;;;22.55;53.88
26861;BME280;37676;46.956;7.430;2022-09-03T00:12:51;95059.72;;;22.56;54.02
26861;BME280;37676;46.956;7.430;2022-09-03T00:15:22;95039.34;;;22.50;54.05
26861;BME280;37676;46.956;7.430;2022-09-03T00:17:54;95047.06;;;22.57;53.83
26861;BME280;37676;46.956;7.430;2022-09-03T00:20:26;95044.22;;;22.57;54.10
26861;BME280;37676;46.956;7.430;2022-09-03T00:22:57;94968.38;;;22.08;54.01
26861;BME280;37676;46.956;7.430;2022-09-03T00:25:33;95049.31;;;22.58;53.98
26861;BME280;37676;46.956;7.430;2022-09-03T00:28:05;95040.63;;;22.56;54.20
26861;BME280;37676;46.956;7.430;2022-09-03T00:30:34;95032.91;;;22.49;53.96
26861;BME280;37676;46.956;7.430;2022-09-03T00:33:20;95029.84;;;22.55;54.17
26861;BME280;37676;46.956;7.430;2022-09-03T00:36:03;95028.53;;;22.56;54.04
26861;BME280;37676;46.956;7.430;2022-09-03T00:38:29;94977.41;;;22.14;54.34
26861;BME280;37676;46.956;7.430;2022-09-03T00:41:16;95031.91;;;22.54;54.13
26861;BME280;37676;46.956;7.430;2022-09-03T00:58:13;95019.91;;;22.46;54.38
26861;BME280;37676;46.956;7.430;2022-09-03T01:00:43;94978.53;;;22.19;54.50
26861;BME280;37676;46.956;7.430;2022-09-03T01:03:11;95039.56;;;22.44;54.40
26861;BME280;37676;46.956;7.430;2022-09-03T01:05:56;95027.28;;;22.42;54.49
26861;BME280;37676;46.956;7.430;2022-09-03T01:13:39;95056.94;;;22.48;54.71
26861;BME280;37676;46.956;7.430;2022-09-03T01:19:03;95084.56;;;22.40;55.12
26861;BME280;37676;46.956;7.430;2022-09-03T01:27:14;95086.69;;;22.32;55.44
26861;BME280;37676;46.956;7.430;2022-09-03T01:30:08;95092.19;;;22.30;55.46
26861;BME280;37676;46.956;7.430;2022-09-03T01:32:39;95088.97;;;22.26;55.49
26861;BME280;37676;46.956;7.430;2022-09-03T01:35:26;95023.50;;;21.83;55.57
26861;BME280;37676;46.956;7.430;2022-09-03T01:40:50;95030.84;;;21.86;56.04
26861;BME280;37676;46.956;7.430;2022-09-03T01:43:43;95098.25;;;22.27;56.15
26861;BME280;37676;46.956;7.430;2022-09-03T01:46:25;95094.66;;;22.26;56.14
26861;BME280;37676;46.956;7.430;2022-09-03T01:49:07;95098.66;;;22.23;56.25
26861;BME280;37676;46.956;7.430;2022-09-03T01:51:36;94924.13;;;21.09;56.37
26861;BME280;37676;46.956;7.430;2022-09-03T02:00:08;95108.13;;;22.18;56.50
26861;BME280;37676;46.956;7.430;2022-09-03T02:02:34;94814.28;;;20.28;56.55
26861;BME280;37676;46.956;7.430;2022-09-03T02:05:04;95107.94;;;22.16;56.66
26861;BME280;37676;46.956;7.430;2022-09-03T02:07:35;95104.16;;;22.14;56.71
26861;BME280;37676;46.956;7.430;2022-09-03T02:10:03;95110.00;;;22.16;56.59
26861;BME280;37676;46.956;7.430;2022-09-03T02:12:30;95005.53;;;21.40;56.64
26861;BME280;37676;46.956;7.430;2022-09-03T02:15:02;95086.69;;;22.00;56.59
26861;BME280;37676;46.956;7.430;2022-09-03T02:17:31;95110.38;;;22.20;56.71
26861;BME280;37676;46.956;7.430;2022-09-03T02:19:57;95052.75;;;21.78;56.71
26861;BME280;37676;46.956;7.430;2022-09-03T02:22:23;95115.69;;;22.16;56.56
26861;BME280;37676;46.956;7.430;2022-09-03T02:24:48;95115.91;;;22.10;56.53
26861;BME280;37676;46.956;7.430;2022-09-03T02:27:14;95104.81;;;21.97;56.82
26861;BME280;37676;46.956;7.430;2022-09-03T02:29:40;95121.78;;;22.05;56.65
26861;BME280;37676;46.956;7.430;2022-09-03T02:32:05;95125.94;;;22.04;56.68
26861;BME280;37676;46.956;7.430;2022-09-03T02:34:30;95087.13;;;21.74;56.80
26861;BME280;37676;46.956;7.430;2022-09-03T02:36:56;95125.19;;;22.03;56.75
26861;BME280;37676;46.956;7.430;2022-09-03T02:39:21;95116.31;;;21.99;56.82
26861;BME280;37676;46.956;7.430;2022-09-03T02:41:51;95132.34;;;22.04;56.87
26861;BME280;37676;46.956;7.430;2022-09-03T02:44:23;94991.66;;;21.05;56.68
26861;BME280;37676;46.956;7.430;2022-09-03T02:47:00;95143.53;;;22.02;56.93
26861;BME280;37676;46.956;7.430;2022-09-03T02:49:27;95009.78;;;21.02;57.01
26861;BME280;37676;46.956;7.430;2022-09-03T02:51:56;95135.59;;;21.93;56.92
26861;BME280;37676;46.956;7.430;2022-09-03T02:54:22;95149.41;;;21.97;56.83
26861;BME280;37676;46.956;7.430;2022-09-03T02:56:48;95102.06;;;21.67;57.01
26861;BME280;37676;46.956;7.430;2022-09-03T02:59:14;95152.78;;;21.95;57.10
26861;BME280;37676;46.956;7.430;2022-09-03T03:01:39;95141.84;;;21.92;56.79
26861;BME280;37676;46.956;7.430;2022-09-03T03:04:04;95119.75;;;21.90;57.21
26861;BME280;37676;46.956;7.430;2022-09-03T03:06:29;95112.81;;;21.84;57.12
26861;BME280;37676;46.956;7.430;2022-09-03T03:08:55;95116.94;;;21.90;57.26
26861;BME280;37676;46.956;7.430;2022-09-03T03:11:21;95124.84;;;21.92;57.39
26861;BME280;37676;46.956;7.430;2022-09-03T03:13:48;95121.44;;;21.93;57.29
26861;BME280;37676;46.956;7.430;2022-09-03T03:16:14;95114.66;;;21.96;57.27
26861;BME280;37676;46.956;7.430;2022-09-03T03:18:41;95122.56;;;21.98;57.11
26861;BME280;37676;46.956;7.430;2022-09-03T03:21:09;95106.19;;;21.89;57.14
26861;BME280;37676;46.956;7.430;2022-09-03T03:23:36;95116.50;;;22.01;57.30
26861;BME280;37676;46.956;7.430;2022-09-03T03:26:04;95118.03;;;22.02;57.42
26861;BME280;37676;46.956;7.430;2022-09-03T03:28:30;95110.84;;;22.01;57.31
26861;BME280;37676;46.956;7.430;2022-09-03T03:30:58;95109.16;;;21.98;57.31
26861;BME280;37676;46.956;7.430;2022-09-03T03:33:23;95108.97;;;21.96;57.49
26861;BME280;37676;46.956;7.430;2022-09-03T03:35:49;95108.78;;;21.94;57.44
26861;BME280;37676;46.956;7.430;2022-09-03T03:38:14;95100.13;;;21.92;57.50
26861;BME280;37676;46.956;7.430;2022-09-03T03:40:40;95109.00;;;21.89;57.47
26861;BME280;37676;46.956;7.430;2022-09-03T03:43:05;95091.28;;;21.81;57.40
26861;BME280;37676;46.956;7.430;2022-09-03T03:45:30;95093.72;;;21.84;57.54
26861;BME280;37676;46.956;7.430;2022-09-03T03:47:57;95084.47;;;21.84;57.32
26861;BME280;37676;46.956;7.430;2022-09-03T03:50:23;95091.28;;;21.81;57.38
26861;BME280;37676;46.956;7.430;2022-09-03T03:52:48;95049.44;;;21.49;57.51
26861;BME280;37676;46.956;7.430;2022-09-03T03:55:14;94835.00;;;20.00;57.58
26861;BME280;37676;46.956;7.430;2022-09-03T03:57:39;95086.75;;;21.70;57.50
26861;BME280;37676;46.956;7.430;2022-09-03T04:00:05;95096.38;;;21.75;57.75
26861;BME280;37676;46.956;7.430;2022-09-03T04:02:30;95096.94;;;21.73;57.71
26861;BME280;37676;46.956;7.430;2022-09-03T04:04:56;95094.88;;;21.66;57.62
26861;BME280;37676;46.956;7.430;2022-09-03T04:07:21;95098.47;;;21.74;57.68
26861;BME280;37676;46.956;7.430;2022-09-03T04:09:46;94931.41;;;20.49;57.70
26861;BME280;37676;46.956;7.430;2022-09-03T04:12:13;95121.13;;;21.74;57.56
26861;BME280;37676;46.956;7.430;2022-09-03T04:14:38;95098.47;;;21.74;57.62
26861;BME280;37676;46.956;7.430;2022-09-03T04:17:04;95088.63;;;21.75;57.72
26861;BME280;37676;46.956;7.430;2022-09-03T04:19:29;95078.63;;;21.74;57.68
26861;BME280;37676;46.956;7.430;2022-09-03T04:21:55;95071.63;;;21.75;57.72
26861;BME280;37676;46.956;7.430;2022-09-03T04:24:20;94937.94;;;20.90;57.55
26861;BME280;37676;46.956;7.430;2022-09-03T04:26:45;95067.91;;;21.65;57.71
26861;BME280;37676;46.956;7.430;2022-09-03T04:29:11;95081.28;;;21.72;57.58
26861;BME280;37676;46.956;7.430;2022-09-03T04:31:37;95066.38;;;21.72;57.66
26861;BME280;37676;46.956;7.430;2022-09-03T04:34:03;94750.91;;;19.76;57.62
26861;BME280;37676;46.956;7.430;2022-09-03T04:36:31;95010.72;;;21.59;57.88
26861;BME280;37676;46.956;7.430;2022-09-03T04:38:59;95001.06;;;21.69;57.92
26861;BME280;37676;46.956;7.430;2022-09-03T04:41:28;95017.66;;;21.73;58.08
26861;BME280;37676;46.956;7.430;2022-09-03T04:43:55;95015.41;;;21.64;58.08
26861;BME280;37676;46.956;7.430;2022-09-03T04:46:22;95021.47;;;21.60;58.24
26861;BME280;37676;46.956;7.430;2022-09-03T04:48:52;95039.22;;;21.61;58.13
26861;BME280;37676;46.956;7.430;2022-09-03T04:51:26;95052.41;;;21.66;58.13
26861;BME280;37676;46.956;7.430;2022-09-03T04:53:54;95056.59;;;21.65;58.15
26861;BME280;37676;46.956;7.430;2022-09-03T04:56:23;95041.91;;;21.44;57.92
26861;BME280;37676;46.956;7.430;2022-09-03T04:58:54;95047.50;;;21.66;57.93
26861;BME280;37676;46.956;7.430;2022-09-03T05:01:21;95049.03;;;21.60;57.92
26861;BME280;37676;46.956;7.430;2022-09-03T05:03:47;95051.09;;;21.67;58.02
26861;BME280;37676;46.956;7.430;2022-09-03T05:06:13;95066.38;;;21.64;58.02
26861;BME280;37676;46.956;7.430;2022-09-03T05:08:41;94909.53;;;20.65;58.19
26861;BME280;37676;46.956;7.430;2022-09-03T05:11:08;95060.00;;;21.56;58.05
26861;BME280;37676;46.956;7.430;2022-09-03T05:13:34;94758.06;;;19.62;58.16
26861;BME280;37676;46.956;7.430;2022-09-03T05:16:06;95052.03;;;21.62;58.23
26861;BME280;37676;46.956;7.430;2022-09-03T05:18:32;95053.38;;;21.61;58.03
26861;BME280;37676;46.956;7.430;2022-09-03T05:21:01;95046.81;;;21.51;58.00
26861;BME280;37676;46.956;7.430;2022-09-03T05:23:28;95054.88;;;21.62;58.01
26861;BME280;37676;46.956;7.430;2022-09-03T05:25:56;95046.38;;;21.62;58.06
26861;BME280;37676;46.956;7.430;2022-09-03T05:28:23;95025.69;;;21.44;57.91
26861;BME280;37676;46.956;7.430;2022-09-03T05:31:00;95020.25;;;21.39;57.98
26861;BME280;37676;46.956;7.430;2022-09-03T05:33:26;95047.91;;;21.63;58.09
26861;BME280;37676;46.956;7.430;2022-09-03T05:35:52;94907.47;;;20.65;58.02
26861;BME280;37676;46.956;7.430;2022-09-03T05:38:18;95040.72;;;21.62;58.25
26861;BME280;37676;46.956;7.430;2022-09-03T05:40:43;95026.09;;;21.41;58.51
26861;BME280;37676;46.956;7.430;2022-09-03T05:43:08;95035.50;;;21.43;58.58
26861;BME280;37676;46.956;7.430;2022-09-03T05:45:34;95065.69;;;21.56;58.80
26861;BME280;37676;46.956;7.430;2022-09-03T05:48:00;95052.84;;;21.55;58.93
26861;BME280;37676;46.956;7.430;2022-09-03T05:50:26;95050.97;;;21.50;58.88
26861;BME280;37676;46.956;7.430;2022-09-03T05:52:51;95037.78;;;21.45;58.83
26861;BME280;37676;46.956;7.430;2022-09-03T05:55:17;94999.91;;;21.18;58.93
26861;BME280;37676;46.956;7.430;2022-09-03T05:57:43;95039.28;;;21.46;58.67
26861;BME280;37676;46.956;7.430;2022-09-03T06:00:10;95039.47;;;21.48;58.82
26861;BME280;37676;46.956;7.430;2022-09-03T06:02:36;95033.63;;;21.46;58.88
26861;BME280;37676;46.956;7.430;2022-09-03T06:05:01;95051.94;;;21.45;58.88
26861;BME280;37676;46.956;7.430;2022-09-03T06:07:26;94997.84;;;21.18;58.93
26861;BME280;37676;46.956;7.430;2022-09-03T06:09:51;94753.19;;;19.55;58.89
26861;BME280;37676;46.956;7.430;2022-09-03T06:12:18;95043.25;;;21.50;58.90
26861;BME280;37676;46.956;7.430;2022-09-03T06:14:43;95035.47;;;21.51;59.06
26861;BME280;37676;46.956;7.430;2022-09-03T06:17:09;95041.31;;;21.53;59.27
26861;BME280;37676;46.956;7.430;2022-09-03T06:19:35;95033.44;;;21.44;59.10
26861;BME280;37676;46.956;7.430;2022-09-03T06:22:00;95045.69;;;21.54;59.41
26861;BME280;37676;46.956;7.430;2022-09-03T06:24:26;95041.50;;;21.55;59.33
26861;BME280;37676;46.956;7.430;2022-09-03T06:26:53;95042.28;;;21.55;59.40
26861;BME280;37676;46.956;7.430;2022-09-03T06:29:19;95050.19;;;21.57;59.54
26861;BME280;37676;46.956;7.430;2022-09-03T06:31:45;95033.22;;;21.49;59.29
26861;BME280;37676;46.956;7.430;2022-09-03T06:34:12;94817.84;;;20.13;59.37
26861;BME280;37676;46.956;7.430;2022-09-03T06:36:37;95047.91;;;21.63;59.78
26861;BME280;37676;46.956;7.430;2022-09-03T06:39:03;94975.97;;;21.19;59.81
26861;BME280;37676;46.956;7.430;2022-09-03T06:41:30;95048.28;;;21.67;59.83
26861;BME280;37676;46.956;7.430;2022-09-03T06:44:00;94891.59;;;20.78;59.69
26861;BME280;37676;46.956;7.430;2022-09-03T06:46:28;95023.69;;;21.69;59.92
26861;BME280;37676;46.956;7.430;2022-09-03T06:48:54;95032.38;;;21.72;59.77
26861;BME280;37676;46.956;7.430;2022-09-03T06:51:22;95027.09;;;21.76;59.72
26861;BME280;37676;46.956;7.430;2022-09-03T06:53:50;95021.81;;;21.80;59.68
26861;BME280;37676;46.956;7.430;2022-09-03T06:56:21;95017.41;;;21.86;59.54
26861;BME280;37676;46.956;7.430;2022-09-03T06:58:50;95012.34;;;21.77;60.12
26861;BME280;37676;46.956;7.430;2022-09-03T07:01:18;95013.09;;;21.85;60.14
26861;BME280;37676;46.956;7.430;2022-09-03T07:03:45;94888.16;;;21.02;60.05
26861;BME280;37676;46.956;7.430;2022-09-03T07:06:16;95012.31;;;21.92;59.97
26861;BME280;37676;46.956;7.430;2022-09-03T07:08:42;94992.69;;;21.87;60.13
26861;BME280;37676;46.956;7.430;2022-09-03T07:11:11;95033.97;;;21.97;60.48
26861;BME280;37676;46.956;7.430;2022-09-03T07:13:39;95015.66;;;21.98;60.28
26861;BME280;37676;46.956;7.430;2022-09-03T07:16:10;95002.66;;;21.95;60.29
26861;BME280;37676;46.956;7.430;2022-09-03T07:18:37;95011.09;;;22.03;60.21
26861;BME280;37676;46.956;7.430;2022-09-03T07:21:05;95001.47;;;22.06;60.34
26861;BME280;37676;46.956;7.430;2022-09-03T07:23:31;94996.72;;;22.08;60.29
26861;BME280;37676;46.956;7.430;2022-09-03T07:26:02;94730.69;;;20.25;60.10
26861;BME280;37676;46.956;7.430;2022-09-03T07:28:29;95012.00;;;22.13;60.29
26861;BME280;37676;46.956;7.430;2022-09-03T07:31:08;95051.44;;;22.18;60.23
26861;BME280;37676;46.956;7.430;2022-09-03T07:33:36;95013.78;;;21.93;60.23
26861;BME280;37676;46.956;7.430;2022-09-03T07:36:03;95038.47;;;22.08;59.92
26861;BME280;37676;46.956;7.430;2022-09-03T07:38:28;95068.09;;;22.14;60.32
26861;BME280;37676;46.956;7.430;2022-09-03T07:40:57;95088.09;;;22.16;60.16
26861;BME280;37676;46.956;7.430;2022-09-03T07:43:27;94818.03;;;20.15;60.79
26861;BME280;37676;46.956;7.430;2022-09-03T07:45:53;95107.97;;;22.09;60.55
26861;BME280;37676;46.956;7.430;2022-09-03T07:48:19;95068.81;;;21.83;60.51
26861;BME280;37676;46.956;7.430;2022-09-03T07:50:45;95099.69;;;22.03;60.50
26861;BME280;37676;46.956;7.430;2022-09-03T07:53:11;94893.66;;;20.77;60.65
26861;BME280;37676;46.956;7.430;2022-09-03T07:55:37;95008.25;;;21.63;60.62
26861;BME280;37676;46.956;7.430;2022-09-03T07:58:02;95076.84;;;22.01;60.59
26861;BME280;37676;46.956;7.430;2022-09-03T08:00:27;95100.84;;;22.00;60.80
26861;BME280;37676;46.956;7.430;2022-09-03T08:02:53;95134.66;;;21.98;61.03
26861;BME280;37676;46.956;7.430;2022-09-03T08:05:19;95111.84;;;21.74;61.34
26861;BME280;37676;46.956;7.430;2022-09-03T08:07:45;95154.50;;;21.91;61.44
26861;BME280;37676;46.956;7.430;2022-09-03T08:10:11;95143.03;;;21.81;61.57
26861;BME280;37676;46.956;7.430;2022-09-03T08:12:37;95151.31;;;21.72;61.58
26861;BME280;37676;46.956;7.430;2022-09-03T08:15:02;95135.50;;;21.61;61.47
26861;BME280;37676;46.956;7.430;2022-09-03T08:17:28;95161.88;;;21.79;61.61
26861;BME280;37676;46.956;7.430;2022-09-03T08:19:53;95165.28;;;21.77;61.52
26861;BME280;37676;46.956;7.430;2022-09-03T08:22:20;95173.59;;;21.75;61.46
26861;BME280;37676;46.956;7.430;2022-09-03T08:24:46;95185.50;;;21.74;61.54
26861;BME280;37676;46.956;7.430;2022-09-03T08:27:12;95160.00;;;21.66;61.73
26861;BME280;37676;46.956;7.430;2022-09-03T08:29:38;95168.13;;;21.69;61.79
26861;BME280;37676;46.956;7.430;2022-09-03T08:32:03;95184.53;;;21.71;61.85
26861;BME280;37676;46.956;7.430;2022-09-03T08:34:29;95082.19;;;20.97;61.88
26861;BME280;37676;46.956;7.430;2022-09-03T08:36:54;95198.69;;;21.71;61.95
26861;BME280;37676;46.956;7.430;2022-09-03T08:39:19;95202.88;;;21.70;62.05
26861;BME280;37676;46.956;7.430;2022-09-03T08:42:20;95204.19;;;21.69;62.04
26861;BME280;37676;46.956;7.430;2022-09-03T08:44:54;95208.72;;;21.72;62.03
26861;BME280;37676;46.956;7.430;2022-09-03T08:47:24;95220.81;;;21.73;62.12
26861;BME280;37676;46.956;7.430;2022-09-03T08:49:57;95245.72;;;21.74;61.78
26861;BME280;37676;46.956;7.430;2022-09-03T08:52:46;95236.47;;;21.74;62.11
26861;BME280;37676;46.956;7.430;2022-09-03T08:55:19;95230.63;;;21.64;62.09
26861;BME280;37676;46.956;7.430;2022-09-03T08:57:49;95211.75;;;21.51;62.09
26861;BME280;37676;46.956;7.430;2022-09-03T09:00:15;95239.31;;;21.66;62.01
26861;BME280;37676;46.956;7.430;2022-09-03T09:03:00;95235.72;;;21.65;61.94
26861;BME280;37676;46.956;7.430;2022-09-03T09:10:47;95092.53;;;20.95;61.74
26861;BME280;37676;46.956;7.430;2022-09-03T09:13:28;95187.94;;;21.62;61.66
26861;BME280;37676;46.956;7.430;2022-09-03T09:16:09;95173.59;;;21.60;61.57
26861;BME280;37676;46.956;7.430;2022-09-03T09:21:18;95170.22;;;21.69;61.71
26861;BME280;37676;46.956;7.430;2022-09-03T09:23:47;95204.19;;;21.69;61.76
26861;BME280;37676;46.956;7.430;2022-09-03T09:26:15;95171.75;;;21.40;61.47
26861;BME280;37676;46.956;7.430;2022-09-03T09:28:42;95220.03;;;21.72;61.54
26861;BME280;37676;46.956;7.430;2022-09-03T09:31:11;95211.34;;;21.70;61.62
26861;BME280;37676;46.956;7.430;2022-09-03T09:33:39;95215.34;;;21.67;61.69
26861;BME280;37676;46.956;7.430;2022-09-03T09:36:07;95222.31;;;21.66;61.70
26861;BME280;37676;46.956;7.430;2022-09-03T09:38:35;95183.44;;;21.44;61.69
26861;BME280;37676;46.956;7.430;2022-09-03T09:41:09;95210.22;;;21.65;61.71
26861;BME280;37676;46.956;7.430;2022-09-03T09:43:35;95223.66;;;21.65;61.66
26861;BME280;37676;46.956;7.430;2022-09-03T09:46:18;95217.78;;;21.63;61.93
26861;BME280;37676;46.956;7.430;2022-09-03T09:48:56;95214.78;;;21.61;61.80
26861;BME280;37676;46.956;7.430;2022-09-03T09:51:27;94976.78;;;20.06;61.57
26861;BME280;37676;46.956;7.430;2022-09-03T09:56:35;95214.78;;;21.61;61.68
26861;BME280;37676;46.956;7.430;2022-09-03T09:59:03;95209.13;;;21.61;61.86
26861;BME280;37676;46.956;7.430;2022-09-03T10:01:29;95207.56;;;21.67;61.60
26861;BME280;37676;46.956;7.430;2022-09-03T10:03:58;95191.72;;;21.72;61.77
26861;BME280;37676;46.956;7.430;2022-09-03T10:06:29;95204.75;;;21.75;61.81
26861;BME280;37676;46.956;7.430;2022-09-03T10:09:18;95210.97;;;21.74;61.83
26861;BME280;37676;46.956;7.430;2022-09-03T10:14:31;95199.84;;;21.91;61.88
26861;BME280;37676;46.956;7.430;2022-09-03T10:17:13;95207.16;;;22.01;61.81
26861;BME280;37676;46.956;7.430;2022-09-03T10:19:56;95202.97;;;22.10;62.17
26861;BME280;37676;46.956;7.430;2022-09-03T10:22:47;95213.53;;;22.24;61.76
26861;BME280;37676;46.956;7.430;2022-09-03T10:25:16;95215.19;;;22.35;62.12
26861;BME280;37676;46.956;7.430;2022-09-03T10:27:43;95222.50;;;22.45;62.28
26861;BME280;37676;46.956;7.430;2022-09-03T10:30:11;95216.03;;;22.52;62.41
26861;BME280;37676;46.956;7.430;2022-09-03T10:32:46;95224.94;;;22.56;62.17
26861;BME280;37676;46.956;7.430;2022-09-03T10:35:28;95225.72;;;22.57;62.19
26861;BME280;37676;46.956;7.430;2022-09-03T10:38:09;95213.03;;;22.58;61.92
26861;BME280;37676;46.956;7.430;2022-09-03T10:40:48;95220.19;;;22.67;62.06
26861;BME280;37676;46.956;7.430;2022-09-03T10:43:29;95229.22;;;22.73;61.66
26861;BME280;37676;46.956;7.430;2022-09-03T10:46:16;95195.19;;;22.73;61.59
26861;BME280;37676;46.956;7.430;2022-09-03T10:51:47;95212.78;;;23.03;61.99
26861;BME280;37676;46.956;7.430;2022-09-03T10:57:01;95212.91;;;23.13;62.34
26861;BME280;37676;46.956;7.430;2022-09-03T10:59:44;95215.28;;;23.24;61.92
26861;BME280;37676;46.956;7.430;2022-09-03T11:05:01;95230.03;;;23.30;61.25
26861;BME280;37676;46.956;7.430;2022-09-03T11:07:36;95238.34;;;23.28;61.18
26861;BME280;37676;46.956;7.430;2022-09-03T11:10:12;95244.41;;;23.24;60.82
26861;BME280;37676;46.956;7.430;2022-09-03T11:15:33;95237.66;;;23.20;61.01
26861;BME280;37676;46.956;7.430;2022-09-03T11:18:07;95226.28;;;23.20;60.61
26861;BME280;37676;46.956;7.430;2022-09-03T11:20:37;95168.25;;;22.89;61.12
26861;BME280;37676;46.956;7.430;2022-09-03T11:23:04;95220.78;;;23.22;60.94
26861;BME280;37676;46.956;7.430;2022-09-03T11:25:35;95220.03;;;23.21;60.79
26861;BME280;37676;46.956;7.430;2022-09-03T11:30:47;95199.41;;;23.21;61.09
26861;BME280;37676;46.956;7.430;2022-09-03T11:33:18;95193.72;;;23.21;60.72
26861;BME280;37676;46.956;7.430;2022-09-03T11:35:44;95199.41;;;23.21;60.91
26861;BME280;37676;46.956;7.430;2022-09-03T11:40:57;95194.06;;;23.25;60.86
26861;BME280;37676;46.956;7.430;2022-09-03T11:48:51;95202.50;;;23.40;61.26
26861;BME280;37676;46.956;7.430;2022-09-03T11:51:19;95203.03;;;23.46;61.47
26861;BME280;37676;46.956;7.430;2022-09-03T11:54:01;95199.53;;;23.55;61.66
26861;BME280;37676;46.956;7.430;2022-09-03T11:56:28;95202.88;;;23.61;61.42
26861;BME280;37676;46.956;7.430;2022-09-03T11:59:16;95193.81;;;23.63;61.56
26861;BME280;37676;46.956;7.430;2022-09-03T12:01:47;95030.22;;;22.59;61.22
26861;BME280;37676;46.956;7.430;2022-09-03T12:04:16;95183.34;;;23.65;60.77
26861;BME280;37676;46.956;7.430;2022-09-03T12:07:24;95203.75;;;23.71;60.67
26861;BME280;37676;46.956;7.430;2022-09-03T12:10:18;95172.63;;;23.56;60.99
26861;BME280;37676;46.956;7.430;2022-09-03T12:15:53;95173.66;;;23.85;60.90
26861;BME280;37676;46.956;7.430;2022-09-03T12:18:25;95174.19;;;23.91;61.24
26861;BME280;37676;46.956;7.430;2022-09-03T12:23:30;95171.03;;;24.04;61.40
26861;BME280;37676;46.956;7.430;2022-09-03T12:26:03;95167.94;;;24.10;60.84
26861;BME280;37676;46.956;7.430;2022-09-03T12:28:30;95159.50;;;24.02;60.82
26861;BME280;37676;46.956;7.430;2022-09-03T12:31:09;95163.34;;;24.14;60.33
26861;BME280;37676;46.956;7.430;2022-09-03T12:33:44;95165.78;;;24.18;60.89
26861;BME280;37676;46.956;7.430;2022-09-03T12:36:09;95159.16;;;24.15;60.61
26861;BME280;37676;46.956;7.430;2022-09-03T12:38:35;95176.31;;;24.25;60.44
26861;BME280;37676;46.956;7.430;2022-09-03T12:41:00;95140.88;;;24.09;60.28
26861;BME280;37676;46.956;7.430;2022-09-03T12:43:27;95166.59;;;24.28;60.53
26861;BME280;37676;46.956;7.430;2022-09-03T12:45:53;95130.22;;;24.09;59.99
26861;BME280;37676;46.956;7.430;2022-09-03T12:48:19;95197.59;;;24.33;60.01
26861;BME280;37676;46.956;7.430;2022-09-03T12:50:46;95160.38;;;24.39;59.92
26861;BME280;37676;46.956;7.430;2022-09-03T12:53:21;95164.91;;;24.42;59.96
26861;BME280;37676;46.956;7.430;2022-09-03T12:55:53;95159.22;;;24.42;59.74
26861;BME280;37676;46.956;7.430;2022-09-03T12:58:35;95151.25;;;24.40;59.40
26861;BME280;37676;46.956;7.430;2022-09-03T13:01:05;95156.22;;;24.40;59.61
26861;BME280;37676;46.956;7.430;2022-09-03T13:06:49;95154.69;;;24.39;59.09
26861;BME280;37676;46.956;7.430;2022-09-03T13:09:22;95156.94;;;24.40;59.03
26861;BME280;37676;46.956;7.430;2022-09-03T13:11:48;94958.78;;;23.12;59.05
26861;BME280;37676;46.956;7.430;2022-09-03T13:14:17;95108.00;;;24.15;59.11
26861;BME280;37676;46.956;7.430;2022-09-03T13:30:02;95129.16;;;24.48;58.65
26861;BME280;37676;46.956;7.430;2022-09-03T13:38:06;94867.84;;;22.76;58.62
26861;BME280;37676;46.956;7.430;2022-09-03T13:40:47;95119.94;;;24.58;58.49
26861;BME280;37676;46.956;7.430;2022-09-03T13:43:27;95125.94;;;24.62;58.49
26861;BME280;37676;46.956;7.430;2022-09-03T13:46:02;95121.19;;;24.64;58.46
26861;BME280;37676;46.956;7.430;2022-09-03T13:48:39;95117.91;;;24.68;58.49
26861;BME280;37676;46.956;7.430;2022-09-03T13:51:29;95090.09;;;24.49;58.61
26861;BME280;37676;46.956;7.430;2022-09-03T13:54:04;95122.91;;;24.77;58.78
26861;BME280;37676;46.956;7.430;2022-09-03T13:56:53;95121.56;;;24.78;58.76
26861;BME280;37676;46.956;7.430;2022-09-03T14:02:04;95105.53;;;24.73;58.36
26861;BME280;37676;46.956;7.430;2022-09-03T14:05:01;95115.56;;;24.74;58.33
26861;BME280;37676;46.956;7.430;2022-09-03T14:10:43;95109.44;;;24.77;58.21
26861;BME280;37676;46.956;7.430;2022-09-03T14:16:19;95106.00;;;24.79;58.22
26861;BME280;37676;46.956;7.430;2022-09-03T14:18:55;95103.91;;;24.79;58.06
26861;BME280;37676;46.956;7.430;2022-09-03T14:21:30;94989.88;;;24.05;58.34
26861;BME280;37676;46.956;7.430;2022-09-03T14:24:15;95110.41;;;24.89;58.02
26861;BME280;37676;46.956;7.430;2022-09-03T14:26:56;95108.47;;;24.92;58.28
26861;BME280;37676;46.956;7.430;2022-09-03T14:29:26;95035.13;;;24.46;58.04
26861;BME280;37676;46.956;7.430;2022-09-03T14:32:08;95095.88;;;24.95;57.98
26861;BME280;37676;46.956;7.430;2022-09-03T14:35:32;95096.75;;;24.88;57.60
26861;BME280;37676;46.956;7.430;2022-09-03T14:38:17;95095.88;;;24.95;57.75
26861;BME280;37676;46.956;7.430;2022-09-03T14:43:46;95109.19;;;24.92;57.20
26861;BME280;37676;46.956;7.430;2022-09-03T14:48:54;95098.25;;;24.89;57.12
26861;BME280;37676;46.956;7.430;2022-09-03T14:59:52;95091.94;;;24.81;56.61
26861;BME280;37676;46.956;7.430;2022-09-03T15:07:52;94935.53;;;23.74;56.71
26861;BME280;37676;46.956;7.430;2022-09-03T15:13:18;95096.13;;;24.80;56.51
26861;BME280;37676;46.956;7.430;2022-09-03T15:16:16;95101.81;;;24.80;56.30
26861;BME280;37676;46.956;7.430;2022-09-03T15:22:12;95097.47;;;24.79;56.34
26861;BME280;37676;46.956;7.430;2022-09-03T15:24:55;95103.31;;;24.81;56.07
26861;BME280;37676;46.956;7.430;2022-09-03T15:30:37;95102.56;;;24.80;56.03
26861;BME280;37676;46.956;7.430;2022-09-03T15:33:18;95099.13;;;24.82;56.44
26861;BME280;37676;46.956;7.430;2022-09-03T15:36:02;95101.22;;;24.81;56.23
26861;BME280;37676;46.956;7.430;2022-09-03T15:41:00;94964.22;;;23.95;56.45